createdAt,value
2018-02-10T00:00:25.742Z,71.26
2018-02-10T00:02:54.215Z,71.33
2018-02-10T00:05:23.039Z,71.31
2018-02-10T00:07:51.623Z,71.35
2018-02-10T00:10:20.513Z,71.27
2018-02-10T00:12:49.269Z,71.23
2018-02-10T00:15:17.833Z,71.11
2018-02-10T00:17:46.264Z,71.15
2018-02-10T00:20:15.050Z,71.00
2018-02-10T00:22:43.534Z,71.11
2018-02-10T00:25:11.978Z,71.23
2018-02-10T00:27:40.639Z,71.27
2018-02-10T00:30:09.101Z,71.10
2018-02-10T00:32:37.586Z,71.07
2018-02-10T00:35:06.662Z,70.99
2018-02-10T00:37:35.091Z,70.79
2018-02-10T00:40:03.592Z,70.98
2018-02-10T00:42:32.202Z,70.94
2018-02-10T00:45:00.654Z,71.17
2018-02-10T00:47:29.070Z,71.16
2018-02-10T00:49:57.646Z,71.11
2018-02-10T00:52:26.180Z,71.10
2018-02-10T00:54:54.764Z,71.29
2018-02-10T00:57:23.940Z,71.13
2018-02-10T00:59:52.460Z,71.08
2018-02-10T01:02:20.946Z,71.49
2018-02-10T01:04:49.632Z,71.44
2018-02-10T01:07:19.243Z,71.25
2018-02-10T01:09:47.820Z,71.18
2018-02-10T01:12:17.789Z,71.22
2018-02-10T01:14:46.213Z,71.42
2018-02-10T01:17:14.697Z,71.49
2018-02-10T01:19:43.710Z,71.45
2018-02-10T01:22:12.134Z,71.60
2018-02-10T01:24:40.578Z,71.37
2018-02-10T01:27:09.147Z,71.55
2018-02-10T01:29:37.573Z,71.43
2018-02-10T01:32:05.990Z,71.31
2018-02-10T01:34:34.629Z,71.36
2018-02-10T01:37:03.041Z,71.49
2018-02-10T01:39:31.578Z,71.53
2018-02-10T01:42:00.697Z,71.29
2018-02-10T01:44:29.147Z,71.52
2018-02-10T01:46:57.627Z,71.48
2018-02-10T01:49:26.411Z,71.71
2018-02-10T01:51:54.989Z,71.68
2018-02-10T01:54:23.508Z,71.93
2018-02-10T01:56:52.793Z,72.04
2018-02-10T01:59:21.462Z,71.70
2018-02-10T02:01:49.918Z,72.12
2018-02-10T02:04:18.693Z,72.52
2018-02-10T02:06:47.109Z,72.54
2018-02-10T02:09:15.549Z,72.23
2018-02-10T02:11:44.200Z,72.03
2018-02-10T02:14:12.641Z,71.82
2018-02-10T02:16:41.066Z,71.72
2018-02-10T02:19:09.818Z,71.84
2018-02-10T02:21:38.288Z,72.29
2018-02-10T02:24:06.727Z,72.45
2018-02-10T02:26:36.125Z,72.17
2018-02-10T02:29:04.586Z,72.31
2018-02-10T02:31:33.044Z,72.29
2018-02-10T02:34:02.336Z,71.98
2018-02-10T02:36:30.772Z,71.89
2018-02-10T02:38:59.781Z,72.10
2018-02-10T02:41:28.312Z,72.35
2018-02-10T02:43:56.791Z,72.17
2018-02-10T02:46:25.443Z,72.37
2018-02-10T02:48:55.392Z,72.76
2018-02-10T02:51:23.937Z,73.13
2018-02-10T02:53:52.415Z,72.83
2018-02-10T02:56:22.232Z,72.79
2018-02-10T02:58:51.156Z,72.81
2018-02-10T03:01:19.726Z,72.88
2018-02-10T03:03:48.286Z,72.47
2018-02-10T03:06:16.900Z,72.57
2018-02-10T03:08:45.358Z,72.48
2018-02-10T03:11:13.865Z,72.26
2018-02-10T03:13:42.304Z,72.57
2018-02-10T03:16:10.726Z,72.67
2018-02-10T03:18:40.062Z,72.91
2018-02-10T03:21:08.503Z,72.41
2018-02-10T03:23:36.950Z,72.95
2018-02-10T03:26:06.015Z,72.75
2018-02-10T03:28:34.449Z,72.60
2018-02-10T03:31:02.876Z,72.47
2018-02-10T03:33:31.489Z,72.75
2018-02-10T03:35:59.922Z,73.22
2018-02-10T03:38:28.404Z,72.85
2018-02-10T03:40:57.705Z,73.05
2018-02-10T03:43:26.293Z,72.83
2018-02-10T03:45:54.770Z,73.16
2018-02-10T03:48:23.973Z,73.58
2018-02-10T03:50:52.543Z,73.50
2018-02-10T03:53:21.239Z,73.15
2018-02-10T03:55:49.933Z,72.62
2018-02-10T03:58:18.413Z,72.40
2018-02-10T04:00:46.870Z,72.46
2018-02-10T04:03:16.503Z,72.38
2018-02-10T04:05:45.976Z,72.62
2018-02-10T04:08:14.416Z,72.30
2018-02-10T04:10:43.219Z,72.23
2018-02-10T04:13:11.629Z,72.06
2018-02-10T04:15:40.102Z,71.90
2018-02-10T04:18:08.592Z,72.05
2018-02-10T04:20:37.029Z,72.32
2018-02-10T04:23:05.452Z,73.05
2018-02-10T04:25:33.934Z,72.82
2018-02-10T04:28:02.369Z,72.48
2018-02-10T04:30:30.870Z,72.81
2018-02-10T04:32:59.872Z,72.99
2018-02-10T04:35:28.364Z,72.96
2018-02-10T04:37:57.059Z,72.95
2018-02-10T04:40:26.148Z,72.79
2018-02-10T04:42:54.731Z,72.68
2018-02-10T04:45:23.231Z,72.71
2018-02-10T04:47:52.203Z,72.79
2018-02-10T04:50:20.708Z,72.60
2018-02-10T04:52:49.185Z,72.56
2018-02-10T04:55:17.714Z,72.52
2018-02-10T04:57:46.179Z,72.29
2018-02-10T05:00:14.610Z,72.16
2018-02-10T05:02:43.083Z,72.03
2018-02-10T05:05:11.561Z,72.18
2018-02-10T05:07:40.046Z,72.24
2018-02-10T05:10:08.576Z,72.27
2018-02-10T05:12:37.009Z,72.50
2018-02-10T05:15:05.491Z,72.79
2018-02-10T05:17:34.612Z,72.82
2018-02-10T05:20:03.088Z,72.85
2018-02-10T05:22:31.513Z,72.87
2018-02-10T05:25:00.032Z,72.89
2018-02-10T05:27:28.641Z,73.00
2018-02-10T05:29:57.224Z,73.16
2018-02-10T05:32:25.837Z,73.14
2018-02-10T05:34:54.306Z,73.00
2018-02-10T05:37:22.857Z,72.98
2018-02-10T05:39:51.705Z,72.88
2018-02-10T05:42:20.423Z,72.74
2018-02-10T05:44:48.849Z,72.76
2018-02-10T05:47:17.457Z,72.70
2018-02-10T05:49:45.889Z,72.69
2018-02-10T05:52:14.306Z,72.77
2018-02-10T05:54:43.336Z,72.72
2018-02-10T05:57:11.770Z,72.75
2018-02-10T05:59:41.132Z,72.75
2018-02-10T06:02:09.768Z,72.82
2018-02-10T06:04:38.251Z,72.95
2018-02-10T06:07:06.679Z,72.75
2018-02-10T06:09:35.263Z,72.53
2018-02-10T06:12:03.821Z,72.55
2018-02-10T06:14:32.279Z,72.37
2018-02-10T06:17:02.162Z,72.25
2018-02-10T06:19:30.621Z,72.33
2018-02-10T06:21:59.231Z,72.65
2018-02-10T06:24:28.505Z,72.74
2018-02-10T06:26:57.192Z,72.89
2018-02-10T06:29:25.720Z,73.01
2018-02-10T06:31:54.613Z,72.87
2018-02-10T06:34:23.168Z,72.99
2018-02-10T06:36:51.714Z,73.08
2018-02-10T06:39:20.454Z,73.14
2018-02-10T06:41:48.945Z,73.36
2018-02-10T06:44:17.394Z,73.43
2018-02-10T06:46:46.777Z,73.43
2018-02-10T06:49:15.661Z,73.43
2018-02-10T06:51:44.096Z,73.43
2018-02-10T06:54:12.915Z,73.48
2018-02-10T06:56:41.484Z,73.65
2018-02-10T06:59:09.973Z,73.59
2018-02-10T07:01:38.923Z,73.52
2018-02-10T07:04:07.384Z,73.40
2018-02-10T07:06:35.854Z,73.32
2018-02-10T07:09:04.512Z,73.23
2018-02-10T07:11:33.022Z,73.29
2018-02-10T07:14:01.593Z,73.49
2018-02-10T07:16:30.274Z,73.36
2018-02-10T07:18:58.812Z,73.27
2018-02-10T07:21:27.513Z,73.21
2018-02-10T07:23:56.184Z,73.20
2018-02-10T07:26:24.873Z,73.29
2018-02-10T07:28:53.572Z,73.38
2018-02-10T07:31:22.565Z,73.33
2018-02-10T07:33:51.216Z,73.28
2018-02-10T07:36:19.903Z,73.16
2018-02-10T07:38:48.458Z,73.28
2018-02-10T07:41:16.915Z,73.11
2018-02-10T07:43:45.359Z,73.14
2018-02-10T07:46:13.842Z,73.08
2018-02-10T07:48:42.303Z,73.00
2018-02-10T07:51:10.889Z,72.89
2018-02-10T07:53:39.442Z,73.16
2018-02-10T07:56:07.889Z,72.51
2018-02-10T07:58:36.372Z,72.14
2018-02-10T08:01:05.909Z,72.28
2018-02-10T08:03:34.377Z,72.47
2018-02-10T08:06:02.912Z,72.28
2018-02-10T08:08:31.485Z,71.96
2018-02-10T08:10:59.968Z,71.76
2018-02-10T08:13:29.269Z,71.70
2018-02-10T08:15:59.113Z,71.73
2018-02-10T08:18:27.695Z,71.67
2018-02-10T08:20:56.326Z,71.48
2018-02-10T08:23:24.867Z,71.51
2018-02-10T08:25:53.445Z,71.42
2018-02-10T08:28:22.204Z,71.03
2018-02-10T08:30:51.709Z,70.54
2018-02-10T08:33:20.942Z,70.53
2018-02-10T08:35:49.500Z,70.37
2018-02-10T08:38:18.350Z,70.29
2018-02-10T08:40:46.832Z,69.78
2018-02-10T08:43:15.274Z,68.61
2018-02-10T08:45:44.111Z,67.38
2018-02-10T08:48:12.592Z,65.94
2018-02-10T08:50:41.074Z,63.59
2018-02-10T08:53:10.326Z,62.26
2018-02-10T08:55:38.857Z,61.37
2018-02-10T08:58:07.441Z,60.93
2018-02-10T09:00:36.073Z,60.62
2018-02-10T09:03:04.576Z,58.97
2018-02-10T09:05:33.041Z,58.88
2018-02-10T09:08:01.978Z,57.92
2018-02-10T09:10:30.709Z,55.27
2018-02-10T09:12:59.248Z,54.39
2018-02-10T09:15:28.326Z,53.39
2018-02-10T09:17:57.620Z,52.73
2018-02-10T09:20:26.225Z,51.44
2018-02-10T09:22:56.118Z,50.23
2018-02-10T09:25:24.860Z,50.27
2018-02-10T09:27:54.058Z,50.08
2018-02-10T09:30:22.966Z,49.70
2018-02-10T09:32:51.705Z,48.70
2018-02-10T09:35:20.222Z,49.38
2018-02-10T09:37:49.560Z,49.77
2018-02-10T09:40:18.819Z,49.80
2018-02-10T09:42:47.320Z,50.68
2018-02-10T09:45:16.052Z,51.36
2018-02-10T09:47:44.509Z,51.39
2018-02-10T09:50:12.960Z,51.51
2018-02-10T09:52:42.017Z,51.54
2018-02-10T09:55:10.482Z,51.66
2018-02-10T09:57:38.918Z,51.28
2018-02-10T10:00:08.245Z,51.40
2018-02-10T10:02:36.669Z,52.68
2018-02-10T10:05:05.250Z,49.86
2018-02-10T10:07:34.511Z,50.51
2018-02-10T10:10:03.023Z,51.42
2018-02-10T10:12:31.503Z,50.24
2018-02-10T10:15:00.060Z,49.91
2018-02-10T10:17:28.592Z,48.43
2018-02-10T10:19:57.700Z,49.46
2018-02-10T10:22:26.961Z,48.39
2018-02-10T10:24:55.488Z,48.40
2018-02-10T10:27:24.137Z,48.54
2018-02-10T10:29:53.349Z,48.76
2018-02-10T10:32:22.104Z,47.57
2018-02-10T10:34:51.517Z,47.93
2018-02-10T10:37:20.626Z,44.50
2018-02-10T10:39:49.186Z,44.61
2018-02-10T10:42:17.617Z,45.23
2018-02-10T10:44:46.965Z,43.63
2018-02-10T10:47:15.424Z,40.94
2018-02-10T10:49:43.837Z,40.69
2018-02-10T10:52:12.575Z,41.27
2018-02-10T10:54:41.054Z,41.90
2018-02-10T10:57:09.524Z,41.11
2018-02-10T10:59:38.215Z,40.22
2018-02-10T11:02:06.642Z,39.69
2018-02-10T11:04:35.123Z,41.07
2018-02-10T11:07:04.527Z,40.90
2018-02-10T11:09:33.007Z,41.41
2018-02-10T11:12:01.916Z,42.03
2018-02-10T11:14:30.499Z,42.62
2018-02-10T11:16:58.976Z,43.79
2018-02-10T11:19:27.759Z,43.92
2018-02-10T11:21:56.553Z,45.37
2018-02-10T11:24:25.075Z,45.69
2018-02-10T11:26:53.570Z,47.84
2018-02-10T11:29:23.913Z,49.66
2018-02-10T11:31:52.530Z,50.46
2018-02-10T11:34:21.332Z,51.91
2018-02-10T11:36:50.618Z,51.48
2018-02-10T11:39:19.129Z,53.50
2018-02-10T11:41:47.545Z,53.64
2018-02-10T11:44:16.484Z,53.35
2018-02-10T11:46:44.942Z,54.03
2018-02-10T11:49:13.397Z,54.32
2018-02-10T11:51:42.631Z,54.81
2018-02-10T11:54:11.045Z,55.57
2018-02-10T11:56:39.475Z,55.71
2018-02-10T11:59:07.946Z,55.67
2018-02-10T12:01:36.386Z,55.61
2018-02-10T12:04:04.825Z,56.00
2018-02-10T12:06:33.297Z,56.58
2018-02-10T12:09:01.742Z,56.65
2018-02-10T12:11:30.583Z,56.90
2018-02-10T12:13:59.585Z,56.72
2018-02-10T12:16:28.268Z,56.92
2018-02-10T12:18:56.846Z,57.78
2018-02-10T12:21:26.168Z,57.23
2018-02-10T12:23:54.872Z,57.83
2018-02-10T12:26:23.389Z,57.13
2018-02-10T12:28:51.930Z,56.73
2018-02-10T12:31:21.493Z,56.85
2018-02-10T12:33:50.352Z,57.37
2018-02-10T12:36:19.013Z,56.75
2018-02-10T12:38:47.489Z,56.57
2018-02-10T12:41:15.929Z,56.66
2018-02-10T12:43:44.690Z,56.71
2018-02-10T12:46:13.141Z,56.96
2018-02-10T12:51:45.393Z,57.59
2018-02-10T12:54:14.918Z,58.00
2018-02-10T12:56:43.385Z,57.83
2018-02-10T12:59:12.638Z,57.84
2018-02-10T13:01:41.196Z,58.08
2018-02-10T13:04:09.696Z,57.72
2018-02-10T13:06:38.149Z,57.56
2018-02-10T13:09:06.614Z,57.44
2018-02-10T13:11:35.190Z,57.23
2018-02-10T13:14:03.697Z,57.17
2018-02-10T13:16:32.721Z,56.83
2018-02-10T13:19:01.244Z,56.88
2018-02-10T13:21:29.972Z,57.34
2018-02-10T13:23:58.832Z,57.60
2018-02-10T13:26:28.287Z,57.42
2018-02-10T13:28:56.818Z,57.36
2018-02-10T13:31:25.418Z,58.09
2018-02-10T13:33:54.906Z,57.92
2018-02-10T13:36:23.452Z,57.72
2018-02-10T13:38:52.681Z,57.75
2018-02-10T13:41:21.572Z,57.65
2018-02-10T13:43:50.125Z,57.54
2018-02-10T13:46:18.820Z,57.59
2018-02-10T13:48:47.250Z,57.85
2018-02-10T13:51:15.692Z,57.47
2018-02-10T13:53:44.191Z,56.97
2018-02-10T13:56:12.748Z,57.02
2018-02-10T13:58:41.369Z,56.36
2018-02-10T14:01:10.241Z,56.42
2018-02-10T14:03:38.701Z,56.13
2018-02-10T14:06:07.129Z,56.12
2018-02-10T14:08:35.661Z,57.06
2018-02-10T14:11:04.114Z,56.93
2018-02-10T14:13:32.533Z,56.96
2018-02-10T14:16:01.050Z,56.51
2018-02-10T14:18:29.613Z,56.77
2018-02-10T14:20:58.145Z,56.32
2018-02-10T14:23:27.968Z,56.35
2018-02-10T14:25:56.749Z,56.64
2018-02-10T14:28:25.235Z,56.58
2018-02-10T14:30:54.151Z,56.14
2018-02-10T14:33:22.843Z,56.49
2018-02-10T14:35:51.439Z,57.03
2018-02-10T14:38:21.393Z,56.59
2018-02-10T14:40:50.462Z,56.44
2018-02-10T14:43:18.897Z,56.71
2018-02-10T14:45:47.354Z,57.02
2018-02-10T14:48:15.815Z,57.33
2018-02-10T14:50:44.230Z,57.38
2018-02-10T14:53:12.908Z,57.46
2018-02-10T14:55:41.332Z,57.62
2018-02-10T14:58:09.881Z,58.00
2018-02-10T15:00:39.045Z,57.99
2018-02-10T15:03:07.455Z,58.03
2018-02-10T15:05:35.863Z,58.46
2018-02-10T15:08:04.472Z,59.10
2018-02-10T15:10:32.997Z,59.35
2018-02-10T15:13:01.458Z,59.53
2018-02-10T15:15:29.948Z,59.63
2018-02-10T15:17:58.947Z,59.91
2018-02-10T15:20:27.553Z,59.88
2018-02-10T15:22:56.526Z,60.01
2018-02-10T15:25:25.098Z,60.08
2018-02-10T15:27:53.625Z,60.62
2018-02-10T15:30:34.241Z,60.78
2018-02-10T15:33:14.382Z,60.92
2018-02-10T15:35:43.209Z,60.88
2018-02-10T15:38:11.621Z,61.04
2018-02-10T15:40:40.153Z,61.50
2018-02-10T15:43:08.652Z,61.60
2018-02-10T15:45:37.088Z,61.67
2018-02-10T15:48:05.542Z,61.81
2018-02-10T15:50:35.480Z,61.85
2018-02-10T15:53:03.964Z,61.93
2018-02-10T15:55:32.387Z,61.96
2018-02-10T15:58:01.540Z,62.12
2018-02-10T16:00:30.173Z,62.04
2018-02-10T16:02:58.921Z,61.79
2018-02-10T16:05:27.957Z,61.73
2018-02-10T16:07:56.729Z,61.33
2018-02-10T16:10:25.352Z,61.23
2018-02-10T16:12:54.561Z,61.17
2018-02-10T16:15:23.476Z,61.24
2018-02-10T16:17:52.182Z,61.04
2018-02-10T16:20:21.323Z,61.32
2018-02-10T16:22:49.787Z,61.47
2018-02-10T16:25:18.323Z,61.99
2018-02-10T16:27:47.240Z,61.95
2018-02-10T16:30:15.687Z,62.13
2018-02-10T16:32:44.149Z,62.01
2018-02-10T16:35:13.248Z,61.95
2018-02-10T16:37:41.667Z,61.62
2018-02-10T16:40:10.103Z,61.39
2018-02-10T16:42:38.991Z,61.54
2018-02-10T16:45:07.415Z,61.55
2018-02-10T16:47:35.849Z,61.19
2018-02-10T16:50:04.918Z,61.78
2018-02-10T16:52:34.149Z,61.63
2018-02-10T16:55:02.644Z,61.54
2018-02-10T16:57:31.537Z,61.28
2018-02-10T16:59:59.993Z,61.28
2018-02-10T17:02:28.650Z,61.11
2018-02-10T17:04:57.238Z,61.22
2018-02-10T17:07:26.051Z,61.22
2018-02-10T17:09:54.951Z,61.33
2018-02-10T17:12:23.651Z,61.62
2018-02-10T17:14:52.107Z,61.55
2018-02-10T17:17:20.653Z,61.72
2018-02-10T17:19:49.504Z,61.95
2018-02-10T17:22:18.015Z,62.03
2018-02-10T17:24:46.465Z,62.04
2018-02-10T17:27:15.341Z,62.08
2018-02-10T17:29:43.770Z,62.03
2018-02-10T17:32:12.293Z,61.97
2018-02-10T17:34:41.312Z,61.72
2018-02-10T17:37:09.762Z,61.66
2018-02-10T17:39:38.276Z,62.09
2018-02-10T17:42:06.753Z,62.11
2018-02-10T17:44:35.209Z,62.07
2018-02-10T17:47:03.642Z,62.14
2018-02-10T17:49:32.357Z,61.97
2018-02-10T17:52:00.839Z,62.18
2018-02-10T17:54:29.384Z,62.04
2018-02-10T17:56:58.000Z,61.66
2018-02-10T17:59:26.449Z,61.65
2018-02-10T18:01:55.214Z,61.40
2018-02-10T18:04:24.720Z,61.32
2018-02-10T18:06:53.336Z,61.34
2018-02-10T18:09:21.882Z,61.16
2018-02-10T18:11:51.087Z,61.25
2018-02-10T18:14:19.838Z,61.29
2018-02-10T18:16:48.254Z,61.63
2018-02-10T18:19:17.001Z,61.87
2018-02-10T18:21:45.647Z,62.27
2018-02-10T18:24:14.076Z,62.58
2018-02-10T18:26:42.544Z,62.57
2018-02-10T18:29:10.992Z,63.00
2018-02-10T18:31:39.999Z,63.16
2018-02-10T18:34:08.601Z,63.46
2018-02-10T18:36:37.008Z,63.43
2018-02-10T18:39:05.540Z,63.96
2018-02-10T18:41:34.093Z,64.21
2018-02-10T18:44:02.553Z,64.15
2018-02-10T18:46:31.162Z,64.19
2018-02-10T18:48:59.697Z,64.39
2018-02-10T18:51:28.585Z,64.39
2018-02-10T18:53:57.078Z,64.45
2018-02-10T18:56:26.243Z,64.40
2018-02-10T18:58:55.154Z,64.15
2018-02-10T19:01:23.718Z,64.34
2018-02-10T19:03:53.659Z,64.12
2018-02-10T19:06:22.209Z,64.29
2018-02-10T19:08:50.856Z,64.30
2018-02-10T19:11:20.342Z,64.34
2018-02-10T19:13:48.849Z,64.63
2018-02-10T19:16:17.293Z,64.81
2018-02-10T19:18:46.247Z,64.99
2018-02-10T19:21:14.752Z,65.08
2018-02-10T19:23:43.235Z,65.12
2018-02-10T19:26:12.709Z,65.29
2018-02-10T19:28:41.153Z,65.46
2018-02-10T19:31:09.672Z,65.62
2018-02-10T19:33:38.207Z,66.04
2018-02-10T19:36:06.776Z,66.20
2018-02-10T19:38:36.317Z,66.28
2018-02-10T19:41:04.887Z,66.44
2018-02-10T19:43:33.439Z,66.53
2018-02-10T19:46:01.997Z,66.28
2018-02-10T19:48:31.099Z,66.41
2018-02-10T19:51:00.308Z,66.56
2018-02-10T19:53:29.412Z,66.72
2018-02-10T19:55:58.368Z,67.12
2018-02-10T19:58:26.965Z,67.38
2018-02-10T20:00:55.642Z,67.82
2018-02-10T20:03:24.770Z,67.95
2018-02-10T20:05:53.418Z,68.27
2018-02-10T20:08:21.988Z,68.28
2018-02-10T20:10:52.188Z,68.35
2018-02-10T20:13:20.640Z,68.45
2018-02-10T20:15:50.072Z,68.53
2018-02-10T20:18:18.696Z,68.94
2018-02-10T20:20:47.300Z,69.23
2018-02-10T20:23:15.716Z,69.84
2018-02-10T20:25:44.901Z,70.19
2018-02-10T20:28:13.396Z,70.13
2018-02-10T20:30:41.845Z,70.10
2018-02-10T20:33:11.532Z,70.04
2018-02-10T20:35:39.955Z,70.14
2018-02-10T20:38:08.399Z,70.48
2018-02-10T20:40:37.865Z,70.63
2018-02-10T20:43:06.351Z,70.85
2018-02-10T20:45:34.797Z,71.51
2018-02-10T20:48:03.304Z,71.77
2018-02-10T20:50:31.822Z,71.88
2018-02-10T20:53:00.552Z,72.10
2018-02-10T20:55:29.947Z,72.05
2018-02-10T20:57:58.699Z,72.01
2018-02-10T21:00:27.229Z,72.20
2018-02-10T21:02:56.376Z,72.34
2018-02-10T21:05:24.915Z,72.35
2018-02-10T21:07:53.407Z,72.39
2018-02-10T21:10:22.532Z,72.44
2018-02-10T21:12:51.642Z,72.21
2018-02-10T21:15:20.372Z,72.24
2018-02-10T21:17:49.081Z,72.37
2018-02-10T21:20:17.513Z,72.12
2018-02-10T21:22:45.962Z,71.95
2018-02-10T21:25:15.736Z,72.12
2018-02-10T21:27:44.318Z,72.13
2018-02-10T21:30:12.781Z,72.14
2018-02-10T21:32:42.138Z,72.33
2018-02-10T21:35:10.598Z,72.66
2018-02-10T21:37:39.094Z,72.70
2018-02-10T21:40:08.008Z,72.69
2018-02-10T21:42:36.628Z,72.82
2018-02-10T21:45:05.115Z,73.33
2018-02-10T21:47:33.874Z,73.22
2018-02-10T21:50:02.292Z,73.23
2018-02-10T21:52:30.754Z,73.15
2018-02-10T21:54:59.957Z,72.86
2018-02-10T21:57:28.959Z,72.74
2018-02-10T21:59:58.063Z,72.88
2018-02-10T22:02:27.056Z,73.04
2018-02-10T22:04:55.663Z,72.91
2018-02-10T22:07:24.468Z,72.84
2018-02-10T22:09:53.302Z,73.06
2018-02-10T22:12:22.200Z,72.92
2018-02-10T22:14:50.701Z,73.17
2018-02-10T22:17:19.252Z,73.13
2018-02-10T22:19:47.732Z,72.94
2018-02-10T22:22:16.181Z,72.79
2018-02-10T22:24:44.886Z,72.58
2018-02-10T22:27:13.306Z,72.98
2018-02-10T22:29:41.707Z,72.96
2018-02-10T22:32:10.188Z,73.02
2018-02-10T22:34:38.617Z,73.10
2018-02-10T22:37:07.057Z,73.26
2018-02-10T22:39:35.532Z,73.21
2018-02-10T22:42:03.977Z,72.98
2018-02-10T22:44:32.419Z,73.09
2018-02-10T22:47:00.951Z,73.04
2018-02-10T22:49:29.453Z,73.14
2018-02-10T22:51:57.913Z,72.97
2018-02-10T22:54:26.546Z,73.02
2018-02-10T22:56:55.077Z,73.09
2018-02-10T22:59:23.761Z,73.07
2018-02-10T23:01:52.434Z,73.14
2018-02-10T23:04:20.956Z,73.24
2018-02-10T23:06:49.439Z,73.42
2018-02-10T23:09:18.814Z,73.52
2018-02-10T23:11:47.292Z,73.74
2018-02-10T23:14:15.771Z,73.75
2018-02-10T23:16:45.422Z,73.77
2018-02-10T23:19:13.949Z,73.77
2018-02-10T23:21:42.576Z,73.86
2018-02-10T23:24:11.949Z,73.84
2018-02-10T23:26:40.368Z,74.09
2018-02-10T23:29:08.851Z,74.08
2018-02-10T23:31:38.265Z,74.42
2018-02-10T23:34:06.714Z,74.39
2018-02-10T23:36:35.220Z,74.40
2018-02-10T23:39:03.881Z,74.63
2018-02-10T23:41:32.364Z,74.67
2018-02-10T23:44:00.833Z,74.62
2018-02-10T23:46:29.656Z,74.69
2018-02-10T23:48:58.383Z,74.69
2018-02-10T23:51:26.862Z,74.69
2018-02-10T23:53:55.652Z,74.80
2018-02-10T23:56:24.427Z,75.01
2018-02-10T23:58:52.970Z,75.13
